Terminal Aerodrome Forecast
Issued by NWS Wakefield, VA

Home | Current Version | Previous Version | Text Only | Print | Product List | Glossary On
Versions: 1 2 3 4 5 6 7 8 9 10 11 12 13 14 15 16 17 18 19 20 21 22 23
000
FTUS41 KAKQ 260639 AAA
TAFSBY
TAF AMD
KSBY 260639Z 2607/2706 07003KT P6SM SCT025 BKN035
     FM261400 08007KT P6SM BKN035
     FM262200 11006KT P6SM SCT035
     FM270200 11004KT P6SM SCT150=

USA.gov is the U.S. government's official web portal to all federal, state and local government web resources and services.